Time;durP1;ratioP1;P1;durP2;ratioP2;P2;SDS_P1;SDS_P2;PMS_P1;PMS_P2;Temp;Humidity;BMP_temperature;BMP_pressure;BME280_temperature;BME280_humidity;BME280_pressure;Samples;Min_cycle;Max_cycle;Signal;HPM_P1;HPM_P2
2023/10/19 00:00:48;;;;;;;3.22;1.35;;;;;;;10.84;100.00;100204.91;5077380;28;20667;-78
2023/10/19 00:03:16;;;;;;;4.82;1.40;;;;;;;10.75;100.00;100173.66;5110728;28;20201;-77
2023/10/19 00:05:46;;;;;;;3.75;1.35;;;;;;;10.97;100.00;100205.13;5113520;28;20711;-79
2023/10/19 00:08:19;;;;;;;2.78;1.30;;;;;;;11.19;100.00;100210.66;5116064;28;20700;-79
2023/10/19 00:10:50;;;;;;;4.80;1.45;;;;;;;11.04;100.00;100187.09;5116355;28;20283;-78
2023/10/19 00:13:19;;;;;;;4.97;1.58;;;;;;;11.06;100.00;100163.75;5115960;28;20288;-78
2023/10/19 00:15:47;;;;;;;1.35;1.00;;;;;;;11.10;100.00;100171.59;5116232;28;20205;-77
2023/10/19 00:18:23;;;;;;;1.55;0.90;;;;;;;11.49;100.00;100191.16;5116088;28;20262;-79
2023/10/19 00:20:52;;;;;;;1.48;1.00;;;;;;;11.76;100.00;100186.34;5115800;28;20221;-78
2023/10/19 00:23:28;;;;;;;3.63;1.38;;;;;;;12.09;100.00;100181.53;5116045;28;20204;-78
2023/10/19 00:25:56;;;;;;;2.47;1.30;;;;;;;12.19;100.00;100177.28;5116077;28;20220;-78
2023/10/19 00:28:22;;;;;;;2.92;1.10;;;;;;;12.26;100.00;100172.16;5079869;28;20195;-78
2023/10/19 00:30:52;;;;;;;1.45;0.98;;;;;;;12.43;100.00;100172.31;5115811;28;20661;-79
2023/10/19 00:33:21;;;;;;;1.95;1.00;;;;;;;12.54;100.00;100165.47;5115323;28;20194;-78
2023/10/19 00:35:50;;;;;;;3.13;1.30;;;;;;;12.64;100.00;100171.63;5115500;28;20276;-78
2023/10/19 00:38:38;;;;;;;4.43;1.35;;;;;;;12.73;100.00;100179.50;5115667;28;20580;-78
2023/10/19 00:41:11;;;;;;;2.30;1.10;;;;;;;12.83;100.00;100179.59;5115588;28;20235;-78
2023/10/19 00:43:43;;;;;;;3.03;1.50;;;;;;;12.40;100.00;100157.56;5115582;28;20237;-79
2023/10/19 00:46:15;;;;;;;2.17;1.33;;;;;;;12.10;100.00;100165.06;5115378;28;20209;-79
2023/10/19 00:48:46;;;;;;;2.20;2.00;;;;;;;12.04;100.00;100162.41;5115425;28;20284;-79
2023/10/19 00:51:26;;;;;;;1.42;0.95;;;;;;;11.83;100.00;100167.38;5115638;27;20197;-79
2023/10/19 00:53:55;;;;;;;2.20;1.25;;;;;;;11.80;100.00;100186.41;5115599;28;20247;-79
2023/10/19 00:56:26;;;;;;;4.07;1.30;;;;;;;11.17;100.00;100126.72;5096780;28;20230;-79
2023/10/19 00:58:59;;;;;;;5.07;2.20;;;;;;;11.25;100.00;100161.44;5114979;28;20202;-79
2023/10/19 01:01:29;;;;;;;5.10;1.88;;;;;;;11.22;100.00;100187.34;5115193;28;20204;-78
2023/10/19 01:03:59;;;;;;;1.95;1.23;;;;;;;11.18;100.00;100185.56;5115579;28;20254;-79
2023/10/19 01:06:31;;;;;;;3.60;1.63;;;;;;;10.97;100.00;100190.44;5115215;27;20206;-78
2023/10/19 01:08:58;;;;;;;3.10;1.27;;;;;;;10.73;100.00;100166.72;5115413;27;20199;-78
2023/10/19 01:11:28;;;;;;;2.92;1.33;;;;;;;10.93;100.00;100193.81;5079324;28;20189;-79
2023/10/19 01:13:59;;;;;;;3.80;1.42;;;;;;;10.91;100.00;100190.34;5115349;28;20208;-78
2023/10/19 01:16:26;;;;;;;2.58;1.35;;;;;;;10.56;100.00;100157.81;5114706;28;20229;-79
2023/10/19 01:18:54;;;;;;;1.88;1.00;;;;;;;10.62;100.00;100160.50;5115003;28;20232;-79
2023/10/19 01:21:35;;;;;;;2.83;1.25;;;;;;;10.93;100.00;100186.94;5114968;28;20232;-79
2023/10/19 01:24:07;;;;;;;2.72;1.10;;;;;;;10.92;100.00;100186.88;5114411;28;20200;-77
2023/10/19 01:26:37;;;;;;;3.92;1.55;;;;;;;10.84;100.00;100178.13;5078779;28;20193;-78
2023/10/19 01:29:13;;;;;;;3.50;1.30;;;;;;;10.85;100.00;100179.84;5114525;28;20201;-78
2023/10/19 01:31:56;;;;;;;2.78;1.17;;;;;;;10.68;100.00;100160.56;5114754;28;20239;-79
2023/10/19 01:34:23;;;;;;;2.60;1.23;;;;;;;10.85;100.00;100175.56;5114410;28;20250;-78
2023/10/19 01:36:50;;;;;;;1.85;1.23;;;;;;;10.85;100.00;100177.28;5114280;28;20716;-77
2023/10/19 01:39:19;;;;;;;2.83;1.23;;;;;;;10.76;100.00;100158.97;5114938;28;20708;-78
2023/10/19 01:41:45;;;;;;;2.03;1.10;;;;;;;10.79;100.00;100164.22;5114463;28;20305;-78
2023/10/19 01:44:15;;;;;;;3.13;1.48;;;;;;;10.74;100.00;100164.13;5114768;28;20282;-79
2023/10/19 01:46:43;;;;;;;3.22;1.20;;;;;;;10.56;100.00;100134.47;5114546;28;20221;-78
2023/10/19 01:49:11;;;;;;;2.38;1.10;;;;;;;10.57;100.00;100133.59;5113991;28;20322;-79
2023/10/19 01:51:38;;;;;;;1.27;1.00;;;;;;;10.70;100.00;100158.91;5114590;28;20296;-79
2023/10/19 01:54:05;;;;;;;2.13;1.23;;;;;;;10.71;100.00;100158.03;5114246;28;20209;-78
2023/10/19 01:56:35;;;;;;;2.50;1.15;;;;;;;10.75;100.00;100154.63;5078494;28;20698;-77
2023/10/19 01:59:04;;;;;;;2.80;1.17;;;;;;;10.57;100.00;100128.41;5095640;28;20284;-78
2023/10/19 02:01:31;;;;;;;2.35;1.10;;;;;;;10.68;100.00;100150.22;5113883;28;20586;-78
2023/10/19 02:03:59;;;;;;;1.58;0.90;;;;;;;10.79;100.00;100149.53;5114152;28;20592;-79
2023/10/19 02:06:28;;;;;;;2.50;1.13;;;;;;;10.81;100.00;100146.94;5114037;28;20205;-78
2023/10/19 02:09:00;;;;;;;1.63;1.10;;;;;;;10.85;100.00;100133.16;5114395;28;20262;-79
2023/10/19 02:11:27;;;;;;;3.15;1.38;;;;;;;10.95;100.00;100151.50;5114068;28;20244;-79
2023/10/19 02:13:59;;;;;;;3.85;1.45;;;;;;;10.78;100.00;100132.22;5113448;27;20680;-77
2023/10/19 02:16:26;;;;;;;2.55;1.83;;;;;;;10.93;100.00;100154.91;5113914;28;20225;-79
2023/10/19 02:18:54;;;;;;;2.15;1.30;;;;;;;10.67;100.00;100117.34;5113793;28;20668;-79
2023/10/19 02:21:22;;;;;;;3.58;1.27;;;;;;;10.62;100.00;100119.00;5113512;28;20252;-78
2023/10/19 02:23:50;;;;;;;3.30;1.30;;;;;;;10.78;100.00;100157.28;5113500;28;20208;-78
2023/10/19 02:26:16;;;;;;;1.55;1.33;;;;;;;10.83;100.00;100163.41;5113338;28;20246;-78
2023/10/19 02:28:44;;;;;;;3.88;1.63;;;;;;;10.89;100.00;100163.50;5112880;28;20201;-78
2023/10/19 02:31:15;;;;;;;1.35;1.10;;;;;;;10.93;100.00;100160.09;5113877;27;20205;-78
2023/10/19 02:33:46;;;;;;;2.47;1.15;;;;;;;10.84;100.00;100167.75;5113461;28;20202;-78
2023/10/19 02:36:13;;;;;;;2.33;1.52;;;;;;;10.80;100.00;100168.56;5113167;28;20200;-77
2023/10/19 02:38:44;;;;;;;2.42;1.20;;;;;;;10.70;100.00;100153.72;5113422;28;20672;-78
2023/10/19 02:41:11;;;;;;;1.23;0.98;;;;;;;10.79;100.00;100164.22;5113281;28;20212;-78
2023/10/19 02:43:37;;;;;;;2.33;1.23;;;;;;;10.79;100.00;100164.22;5113130;28;20229;-78
2023/10/19 02:46:04;;;;;;;1.95;1.02;;;;;;;10.79;100.00;100159.03;5077157;28;20205;-78
2023/10/19 02:48:31;;;;;;;2.30;1.13;;;;;;;10.93;100.00;100157.50;5113318;28;20632;-79
2023/10/19 02:51:05;;;;;;;2.05;1.10;;;;;;;10.89;100.00;100166.97;5112826;28;20202;-78
2023/10/19 02:53:33;;;;;;;1.60;0.93;;;;;;;10.97;100.00;100154.13;5112929;28;20680;-79
2023/10/19 02:56:01;;;;;;;2.13;1.08;;;;;;;10.84;100.00;100147.00;5094334;28;20288;-80
2023/10/19 02:58:28;;;;;;;3.05;1.27;;;;;;;10.68;100.00;100121.69;5112527;28;20232;-78
2023/10/19 03:00:55;;;;;;;2.63;1.17;;;;;;;10.45;100.00;100085.91;5112933;28;20266;-77
2023/10/19 03:03:21;;;;;;;3.05;1.25;;;;;;;10.75;100.00;100144.25;5112910;28;20652;-80
2023/10/19 03:05:51;;;;;;;1.65;1.05;;;;;;;10.88;100.00;100143.59;5112944;28;20202;-79
2023/10/19 03:08:19;;;;;;;4.18;1.75;;;;;;;10.76;100.00;100140.84;5113076;28;20617;-79
2023/10/19 03:10:46;;;;;;;2.17;1.30;;;;;;;10.79;100.00;100143.47;5113311;28;20233;-78
2023/10/19 03:13:14;;;;;;;1.83;1.00;;;;;;;10.74;100.00;100135.59;5112958;28;20207;-79
2023/10/19 03:15:43;;;;;;;2.97;1.15;;;;;;;10.69;100.00;100136.41;5112697;28;20201;-78
2023/10/19 03:18:08;;;;;;;1.77;1.10;;;;;;;10.54;100.00;100120.59;5112827;28;20252;-78
2023/10/19 03:20:38;;;;;;;1.13;0.93;;;;;;;10.59;100.00;100118.97;5113157;28;20657;-78
2023/10/19 03:23:05;;;;;;;2.45;1.20;;;;;;;10.75;100.00;100152.91;5094055;28;20201;-79
2023/10/19 03:26:22;;;;;;;3.33;1.30;;;;;;;10.67;100.00;100148.44;5112885;28;20202;-78
2023/10/19 03:28:43;;;;;;;2.58;1.42;;;;;;;10.35;100.00;100127.19;5112483;28;20201;-78
2023/10/19 03:31:17;;;;;;;2.45;1.10;;;;;;;10.42;100.00;100155.84;5112886;28;20209;-78
2023/10/19 03:33:44;;;;;;;2.60;1.33;;;;;;;10.40;100.00;100152.38;5115036;28;20590;-79
2023/10/19 03:36:13;;;;;;;3.83;1.30;;;;;;;10.44;100.00;100146.38;5077140;28;20197;-77
2023/10/19 03:38:41;;;;;;;2.40;1.20;;;;;;;10.32;100.00;100117.66;5112325;28;20231;-78
2023/10/19 03:41:09;;;;;;;3.00;1.20;;;;;;;10.35;100.00;100140.16;5112026;28;20240;-78
2023/10/19 03:43:36;;;;;;;1.88;1.02;;;;;;;10.20;100.00;100119.19;5112066;28;20240;-77
2023/10/19 03:46:20;;;;;;;2.22;1.10;;;;;;;10.09;100.00;100103.44;5112751;28;20193;-78
2023/10/19 03:48:47;;;;;;;1.55;1.00;;;;;;;10.04;100.00;100119.72;5112081;28;20215;-77
2023/10/19 03:51:14;;;;;;;2.08;1.17;;;;;;;10.16;100.00;100138.13;5112222;28;20590;-78
2023/10/19 03:53:53;;;;;;;2.15;1.77;;;;;;;10.19;100.00;100139.06;5112117;28;20193;-78
2023/10/19 03:56:20;;;;;;;3.10;1.30;;;;;;;10.11;100.00;100132.81;5112533;28;20749;-78
2023/10/19 03:58:50;;;;;;;2.47;1.08;;;;;;;10.01;100.00;100098.97;5112418;28;20263;-76
2023/10/19 04:01:19;;;;;;;4.45;1.75;;;;;;;10.14;100.00;100129.41;5112411;28;20201;-78
2023/10/19 04:03:46;;;;;;;2.85;1.30;;;;;;;10.07;100.00;100106.81;5112260;28;20193;-78
2023/10/19 04:06:14;;;;;;;2.35;1.10;;;;;;;10.10;100.00;100115.53;5112046;28;20197;-79
2023/10/19 04:08:45;;;;;;;2.35;1.10;;;;;;;10.07;100.00;100119.78;5112282;28;20233;-79
2023/10/19 04:11:21;;;;;;;1.83;1.25;;;;;;;10.00;100.00;100121.41;5112953;28;20202;-78
2023/10/19 04:13:52;;;;;;;3.30;1.27;;;;;;;9.96;100.00;100119.59;5076337;28;20232;-79
2023/10/19 04:16:20;;;;;;;1.58;1.05;;;;;;;9.87;100.00;100117.72;5112253;28;20197;-79
2023/10/19 04:18:47;;;;;;;0.98;0.95;;;;;;;9.90;100.00;100116.91;5112203;28;20232;-79
2023/10/19 04:21:15;;;;;;;4.18;2.10;;;;;;;9.74;100.00;100087.25;5112601;28;20197;-79
2023/10/19 04:23:43;;;;;;;1.55;1.02;;;;;;;9.95;100.00;100107.50;5112419;28;20205;-79
2023/10/19 04:26:11;;;;;;;1.90;1.00;;;;;;;9.80;100.00;100102.03;5111787;28;20736;-79
2023/10/19 04:28:44;;;;;;;1.85;1.05;;;;;;;9.86;100.00;100115.09;5112287;28;20193;-79
2023/10/19 04:31:16;;;;;;;3.10;1.33;;;;;;;9.86;100.00;100112.50;5112591;28;20201;-79
2023/10/19 04:33:45;;;;;;;2.95;1.20;;;;;;;9.78;100.00;100103.72;5112117;28;20202;-78
2023/10/19 04:36:14;;;;;;;4.55;2.15;;;;;;;9.61;100.00;100079.22;5112486;28;20591;-78
2023/10/19 04:38:40;;;;;;;1.48;1.00;;;;;;;9.77;100.00;100107.16;5112032;28;20316;-78
2023/10/19 04:41:10;;;;;;;3.38;1.25;;;;;;;9.75;100.00;100082.94;5112045;28;20635;-79
2023/10/19 04:43:37;;;;;;;2.08;1.10;;;;;;;9.80;100.00;100113.28;5111827;28;20236;-79
2023/10/19 04:46:11;;;;;;;2.38;1.23;;;;;;;9.87;100.00;100104.78;5112046;28;20233;-78
2023/10/19 04:48:39;;;;;;;2.17;1.13;;;;;;;9.80;100.00;100102.03;5112548;28;20201;-78
2023/10/19 04:51:07;;;;;;;3.83;1.95;;;;;;;9.80;100.00;100104.63;5112350;28;20201;-78
2023/10/19 04:53:33;;;;;;;4.22;1.42;;;;;;;9.61;100.00;100080.13;5115556;27;20193;-78
2023/10/19 04:56:01;;;;;;;3.38;1.48;;;;;;;9.73;100.00;100087.25;5115941;28;20201;-78
2023/10/19 04:58:29;;;;;;;1.77;1.00;;;;;;;9.93;100.00;100098.81;5115254;27;20643;-78
2023/10/19 05:00:58;;;;;;;1.75;1.10;;;;;;;9.91;100.00;100100.53;5115255;27;20665;-79
2023/10/19 05:03:25;;;;;;;1.80;1.35;;;;;;;9.96;100.00;100110.09;5115823;28;20270;-78
2023/10/19 05:05:52;;;;;;;1.70;1.45;;;;;;;10.01;100.00;100107.59;5115057;28;20197;-78
2023/10/19 05:08:19;;;;;;;2.60;1.15;;;;;;;9.92;100.00;100086.72;5079132;28;20193;-77
2023/10/19 05:10:45;;;;;;;1.95;1.10;;;;;;;10.13;100.00;100115.56;5115010;28;20677;-76
2023/10/19 05:13:13;;;;;;;2.85;1.20;;;;;;;10.19;100.00;100100.19;5095994;28;20225;-77
2023/10/19 05:15:42;;;;;;;2.33;1.10;;;;;;;10.36;100.00;100106.50;5114603;28;20213;-76
2023/10/19 05:18:09;;;;;;;2.85;1.20;;;;;;;10.37;100.00;100113.44;5114697;28;20607;-77
2023/10/19 05:20:40;;;;;;;2.20;1.10;;;;;;;10.44;100.00;100110.09;5078815;28;20206;-76
2023/10/19 05:23:08;;;;;;;2.15;1.20;;;;;;;10.50;100.00;100108.44;5078618;28;20204;-79
2023/10/19 05:25:34;;;;;;;1.52;1.00;;;;;;;10.54;100.00;100103.34;5115646;28;20193;-80
2023/10/19 05:28:01;;;;;;;3.13;1.67;;;;;;;10.55;100.00;100104.22;5115521;28;20201;-77
2023/10/19 05:30:29;;;;;;;2.75;1.20;;;;;;;10.76;100.00;100114.91;5115416;28;20205;-79
2023/10/19 05:32:58;;;;;;;3.13;1.17;;;;;;;10.87;100.00;100111.63;5114742;28;20204;-78
2023/10/19 05:35:27;;;;;;;1.70;1.00;;;;;;;10.72;100.00;100105.31;5114742;28;20197;-80
2023/10/19 05:37:55;;;;;;;1.70;1.20;;;;;;;10.69;100.00;100121.72;5078822;28;20236;-78
2023/10/19 05:40:23;;;;;;;2.50;1.13;;;;;;;10.72;100.00;100101.03;5075326;28;20206;-78
2023/10/19 05:42:50;;;;;;;2.70;1.70;;;;;;;10.63;100.00;100119.00;5113235;28;20198;-76
2023/10/19 05:45:17;;;;;;;2.38;1.10;;;;;;;10.82;100.00;100127.94;5093234;28;20241;-77
2023/10/19 05:47:44;;;;;;;3.63;1.27;;;;;;;10.79;100.00;100102.84;5093382;28;20297;-77
2023/10/19 05:50:14;;;;;;;4.10;1.33;;;;;;;11.12;100.00;100112.81;5093557;28;20265;-77
2023/10/19 05:52:42;;;;;;;2.47;1.20;;;;;;;11.16;100.00;100116.31;5093602;28;20212;-77
2023/10/19 05:55:09;;;;;;;4.70;1.58;;;;;;;11.27;100.00;100120.78;5074727;28;20201;-77
2023/10/19 05:57:40;;;;;;;3.70;1.50;;;;;;;11.02;100.00;100082.44;5093134;28;20229;-77
2023/10/19 06:00:12;;;;;;;3.00;1.40;;;;;;;11.32;100.00;100116.53;5113263;28;20189;-72
2023/10/19 06:02:40;;;;;;;1.23;1.02;;;;;;;11.17;100.00;100085.19;5082757;28;20700;-72
2023/10/19 06:05:07;;;;;;;4.78;1.92;;;;;;;11.64;100.00;100106.53;5112005;28;20202;-77
2023/10/19 06:07:35;;;;;;;2.97;1.17;;;;;;;11.78;100.00;100102.38;5102335;28;20210;-77
2023/10/19 06:10:04;;;;;;;3.33;1.58;;;;;;;11.63;100.00;100109.13;5107268;28;20198;-78
2023/10/19 06:12:31;;;;;;;3.05;1.75;;;;;;;11.35;100.00;100095.81;5102831;28;20197;-78
2023/10/19 06:14:58;;;;;;;4.47;1.50;;;;;;;11.57;100.00;100122.00;5113713;28;20228;-79
2023/10/19 06:17:25;;;;;;;1.65;1.10;;;;;;;11.32;100.00;100100.97;5106175;28;20213;-79
2023/10/19 06:19:52;;;;;;;3.60;1.35;;;;;;;11.28;100.00;100117.34;5106881;28;20209;-77
2023/10/19 06:22:19;;;;;;;1.10;1.00;;;;;;;11.23;100.00;100126.81;5112870;27;20202;-77
2023/10/19 06:24:47;;;;;;;2.17;1.20;;;;;;;11.42;100.00;100125.28;5113085;28;20197;-75
2023/10/19 06:27:13;;;;;;;5.82;1.55;;;;;;;11.19;100.00;100127.63;5093263;28;20214;-78
2023/10/19 06:29:40;;;;;;;2.63;1.10;;;;;;;11.23;100.00;100126.81;5088651;28;20564;-77
2023/10/19 06:32:07;;;;;;;1.50;0.90;;;;;;;11.49;100.00;100134.91;5092721;28;20592;-77
2023/10/19 06:34:35;;;;;;;1.55;1.02;;;;;;;11.65;100.00;100135.97;5093253;28;20202;-78
2023/10/19 06:37:03;;;;;;;3.78;1.23;;;;;;;11.79;100.00;100139.63;5074911;28;20198;-78
2023/10/19 06:39:30;;;;;;;3.60;2.35;;;;;;;11.79;100.00;100134.44;5093870;28;20633;-78
2023/10/19 06:41:58;;;;;;;2.00;1.05;;;;;;;11.68;100.00;100130.81;5074074;28;20202;-78
2023/10/19 06:44:25;;;;;;;2.47;1.23;;;;;;;11.59;100.00;100125.50;5092779;28;20240;-78
2023/10/19 06:46:52;;;;;;;2.45;1.35;;;;;;;11.46;100.00;100062.19;5092446;28;20205;-77
2023/10/19 06:49:19;;;;;;;5.30;1.40;;;;;;;11.94;100.00;100119.00;5093523;28;20206;-81
2023/10/19 06:51:46;;;;;;;1.15;0.90;;;;;;;12.10;100.00;100126.06;5093831;28;20202;-79
2023/10/19 06:54:13;;;;;;;1.98;1.15;;;;;;;12.11;100.00;100112.25;5095231;28;20198;-80
2023/10/19 06:56:41;;;;;;;2.95;1.30;;;;;;;12.17;100.00;100096.69;5113882;28;20208;-73
2023/10/19 06:59:09;;;;;;;4.68;1.55;;;;;;;12.43;100.00;100089.97;5076809;28;20251;-77
2023/10/19 07:01:36;;;;;;;2.13;0.95;;;;;;;12.58;100.00;100111.75;5078107;28;20213;-75
2023/10/19 07:04:03;;;;;;;1.67;1.38;;;;;;;12.68;100.00;100114.44;5091636;28;20194;-75
2023/10/19 07:06:30;;;;;;;2.38;1.15;;;;;;;12.40;100.00;100123.75;5091825;28;20198;-75
2023/10/19 07:08:58;;;;;;;2.70;1.27;;;;;;;12.58;100.00;100116.97;5102694;28;20202;-74
2023/10/19 07:11:25;;;;;;;3.10;1.20;;;;;;;12.54;100.00;100123.00;5076438;28;20695;-76
2023/10/19 07:13:50;;;;;;;1.83;1.00;;;;;;;12.78;100.00;100121.44;5111378;28;20686;-77
2023/10/19 07:16:19;;;;;;;2.90;1.52;;;;;;;12.92;100.00;100095.50;5111099;28;20267;-75
2023/10/19 07:18:46;;;;;;;2.30;1.20;;;;;;;13.06;100.00;100109.44;5091620;28;20234;-75
2023/10/19 07:21:13;;;;;;;4.68;1.58;;;;;;;13.20;100.00;100113.03;5091365;28;20194;-75
2023/10/19 07:23:40;;;;;;;1.92;1.30;;;;;;;13.35;100.00;100104.41;5091643;28;20198;-75
2023/10/19 07:26:07;;;;;;;2.53;1.15;;;;;;;13.45;100.00;100111.41;5091382;28;20301;-76
2023/10/19 07:28:34;;;;;;;10.15;1.60;;;;;;;13.61;100.00;100109.72;5091377;28;20315;-76
2023/10/19 07:31:01;;;;;;;3.63;1.33;;;;;;;13.71;100.00;100101.94;5088604;28;20263;-75
2023/10/19 07:33:30;;;;;;;5.20;1.40;;;;;;;13.80;100.00;100106.31;5086807;28;20204;-75
2023/10/19 07:35:59;;;;;;;2.60;1.60;;;;;;;13.88;100.00;100109.78;5089336;28;20598;-74
2023/10/19 07:38:28;;;;;;;1.30;1.00;;;;;;;13.89;100.00;100104.59;5087645;28;20309;-74
2023/10/19 07:40:55;;;;;;;2.90;1.13;;;;;;;14.03;100.00;100111.56;5089886;28;20198;-75
2023/10/19 07:43:22;;;;;;;5.60;1.63;;;;;;;14.19;100.00;100113.31;5090965;28;20237;-76
2023/10/19 07:45:49;;;;;;;2.25;1.00;;;;;;;14.04;100.00;100058.56;5101092;28;20213;-75
2023/10/19 07:48:16;;;;;;;1.70;0.95;;;;;;;14.51;100.00;100118.59;5104148;28;20205;-76
2023/10/19 07:50:45;;;;;;;2.33;1.20;;;;;;;14.55;100.00;100112.50;5111070;28;20208;-76
2023/10/19 07:53:12;;;;;;;5.75;1.98;;;;;;;14.65;100.00;100106.41;5072368;28;20251;-76
2023/10/19 07:55:39;;;;;;;3.17;1.20;;;;;;;14.76;100.00;100099.44;5104640;28;20217;-77
2023/10/19 07:58:07;;;;;;;1.58;1.42;;;;;;;14.84;100.00;100076.75;5111599;28;20316;-77
2023/10/19 08:00:34;;;;;;;4.43;1.52;;;;;;;15.02;100.00;100100.22;5111924;28;20257;-78
2023/10/19 08:03:01;;;;;;;5.20;1.63;;;;;;;14.91;100.00;100061.97;5107876;28;20198;-77
2023/10/19 08:05:28;;;;;;;1.70;1.27;;;;;;;15.29;100.00;100097.53;5102111;28;20692;-78
2023/10/19 08:07:58;;;;;;;2.78;1.08;;;;;;;15.46;100.00;100081.78;5097785;28;20608;-79
2023/10/19 08:10:26;;;;;;;8.88;2.28;;;;;;;15.49;100.00;100086.13;5112357;28;20266;-75
2023/10/19 08:12:55;;;;;;;1.58;1.05;;;;;;;15.60;100.00;100086.97;5098059;28;20202;-79
2023/10/19 08:15:22;;;;;;;5.82;1.67;;;;;;;15.90;100.00;100078.06;5112648;28;20197;-78
2023/10/19 08:17:50;;;;;;;3.15;1.58;;;;;;;16.19;100.00;100070.91;5097621;28;20234;-78
2023/10/19 08:20:22;;;;;;;2.50;1.23;;;;;;;16.11;100.00;100060.50;5091536;28;20255;-78
2023/10/19 08:22:50;;;;;;;3.13;1.42;;;;;;;16.30;100.00;100066.44;5091710;28;20205;-78
2023/10/19 08:25:18;;;;;;;6.07;1.67;;;;;;;16.56;98.70;100063.59;5091994;28;20202;-78
2023/10/19 08:27:48;;;;;;;3.53;1.23;;;;;;;16.48;97.00;100061.03;5095324;28;20281;-79
2023/10/19 08:30:17;;;;;;;3.05;1.27;;;;;;;16.15;96.90;100004.66;5095998;28;20198;-78
2023/10/19 08:32:47;;;;;;;2.97;1.20;;;;;;;16.39;97.18;100053.28;5095813;28;20248;-79
2023/10/19 08:35:15;;;;;;;6.03;1.83;;;;;;;16.30;98.22;100062.06;5095706;28;20202;-77
2023/10/19 08:37:41;;;;;;;4.28;1.83;;;;;;;16.15;97.02;100064.81;5095589;28;20243;-78
2023/10/19 08:40:14;;;;;;;6.50;2.42;;;;;;;16.42;95.86;100071.56;5094892;28;20714;-78
2023/10/19 08:42:42;;;;;;;5.85;1.52;;;;;;;16.33;93.89;100048.97;5095135;28;20285;-76
2023/10/19 08:45:12;;;;;;;6.03;1.63;;;;;;;16.33;92.71;100030.66;5094880;28;20280;-77
2023/10/19 08:47:47;;;;;;;5.10;2.10;;;;;;;16.65;92.24;100047.81;5094737;28;20634;-78
2023/10/19 08:50:15;;;;;;;2.10;1.05;;;;;;;16.86;91.20;100058.06;5059494;28;20212;-78
2023/10/19 08:52:42;;;;;;;2.08;1.20;;;;;;;17.05;89.52;100058.75;5112030;28;20293;-78
2023/10/19 08:55:12;;;;;;;3.22;1.30;;;;;;;17.16;88.90;100060.31;5115103;28;20201;-78
2023/10/19 09:20:41;;;;;;;1.30;1.20;;;;;;;18.43;74.73;100038.38;5075023;28;20546;-77
2023/10/19 09:23:08;;;;;;;1.00;0.95;;;;;;;18.36;75.34;100036.75;5089534;28;20198;-78
2023/10/19 09:25:36;;;;;;;1.20;1.10;;;;;;;18.15;75.47;100012.63;5087771;28;20212;-78
2023/10/19 09:28:03;;;;;;;1.75;1.08;;;;;;;18.40;74.10;100022.69;5077396;28;20672;-78
2023/10/19 09:30:31;;;;;;;1.05;1.05;;;;;;;18.62;71.82;100026.69;5053761;28;20253;-76
2023/10/19 09:32:59;;;;;;;1.08;0.98;;;;;;;18.56;70.63;100024.16;5089185;28;20233;-78
2023/10/19 09:35:27;;;;;;;0.80;0.80;;;;;;;18.68;68.63;100023.94;5076498;28;20217;-77
2023/10/19 09:37:56;;;;;;;3.22;1.67;;;;;;;18.80;67.99;100013.19;5072860;28;20194;-81
2023/10/19 09:40:24;;;;;;;1.55;1.10;;;;;;;18.95;64.94;100012.00;5088353;28;20604;-76
2023/10/19 09:42:57;;;;;;;1.20;1.10;;;;;;;19.02;63.52;100014.50;5088510;28;20203;-77
2023/10/19 09:45:31;;;;;;;0.90;0.90;;;;;;;19.06;62.24;100005.66;5088467;28;20232;-77
2023/10/19 09:48:01;;;;;;;0.82;0.82;;;;;;;18.89;62.48;100002.50;5053712;28;20279;-78
2023/10/19 09:50:29;;;;;;;0.80;0.80;;;;;;;18.99;62.50;99998.78;5088557;28;20739;-77
2023/10/19 09:52:58;;;;;;;1.02;1.00;;;;;;;19.22;61.32;99993.06;5088267;28;20830;-77
2023/10/19 09:55:33;;;;;;;1.13;0.93;;;;;;;19.27;61.12;99999.94;5069420;28;20205;-78
2023/10/19 09:58:03;;;;;;;1.27;1.17;;;;;;;19.40;60.78;99989.16;5088437;28;20220;-78
2023/10/19 10:00:31;;;;;;;1.25;1.20;;;;;;;19.46;59.54;99994.31;5088270;28;20209;-78
2023/10/19 10:02:58;;;;;;;1.30;1.20;;;;;;;19.61;58.42;99999.22;5088268;28;20622;-76
2023/10/19 10:05:48;;;;;;;1.27;1.23;;;;;;;19.77;57.16;99990.06;5088159;28;20205;-78
2023/10/19 10:08:37;;;;;;;1.20;1.10;;;;;;;19.79;57.16;99988.28;5088208;28;20282;-78
2023/10/19 10:11:21;;;;;;;0.80;0.80;;;;;;;19.83;57.80;99971.53;5088276;28;20647;-77
2023/10/19 10:13:52;;;;;;;0.88;0.88;;;;;;;19.85;59.20;99980.22;5052558;28;20628;-77
2023/10/19 10:16:22;;;;;;;0.82;0.82;;;;;;;19.98;57.29;99976.38;5088024;28;20210;-78
2023/10/19 10:18:50;;;;;;;0.90;0.90;;;;;;;19.80;55.49;99969.81;5087929;28;20230;-75
2023/10/19 10:21:20;;;;;;;0.85;0.85;;;;;;;19.24;55.09;99872.94;5087747;28;20233;-79
2023/10/19 10:23:51;;;;;;;0.82;0.82;;;;;;;19.85;54.02;99972.34;5087746;28;20598;-78
2023/10/19 10:26:19;;;;;;;1.05;0.95;;;;;;;19.86;53.44;99973.19;5068961;28;20190;-77
2023/10/19 10:28:50;;;;;;;1.35;1.27;;;;;;;19.98;53.13;99963.22;5087595;28;20569;-78
2023/10/19 10:31:22;;;;;;;0.90;0.90;;;;;;;20.08;53.11;99964.72;5042995;28;20190;-76
2023/10/19 10:33:51;;;;;;;1.83;1.20;;;;;;;20.19;53.03;99973.19;5074046;28;20285;-77
2023/10/19 10:36:19;;;;;;;1.00;1.00;;;;;;;20.12;52.32;99962.91;5074164;28;20229;-76
2023/10/19 10:38:47;;;;;;;1.08;0.98;;;;;;;20.26;52.28;99964.25;5073682;28;20578;-77
2023/10/19 10:41:21;;;;;;;0.90;0.90;;;;;;;20.36;51.95;99950.88;5055762;28;20594;-76
2023/10/19 10:43:55;;;;;;;1.58;1.27;;;;;;;20.41;52.03;99951.59;5073993;28;20206;-77
2023/10/19 10:46:23;;;;;;;1.10;1.08;;;;;;;20.43;52.33;99945.41;5073881;28;20289;-76
2023/10/19 10:48:51;;;;;;;1.10;1.05;;;;;;;20.46;52.23;99947.09;5073560;28;20214;-77
2023/10/19 10:51:23;;;;;;;0.85;0.85;;;;;;;20.49;52.32;99936.47;5074104;28;20206;-77
2023/10/19 10:53:52;;;;;;;0.90;0.90;;;;;;;20.40;52.03;99907.75;5073904;28;20253;-78
2023/10/19 10:56:23;;;;;;;0.98;0.98;;;;;;;20.53;52.09;99920.53;5073631;28;20237;-77
2023/10/19 10:58:50;;;;;;;1.13;1.13;;;;;;;20.53;52.00;99917.03;5073577;28;20199;-77
2023/10/19 11:01:29;;;;;;;1.00;1.00;;;;;;;20.66;51.94;99916.63;5073623;28;20286;-77
2023/10/19 11:04:07;;;;;;;0.90;0.90;;;;;;;20.82;51.48;99911.78;5073734;28;20289;-77
2023/10/19 11:06:33;;;;;;;0.85;0.85;;;;;;;20.82;51.68;99913.56;5073561;28;20190;-77
2023/10/19 11:09:10;;;;;;;0.90;0.90;;;;;;;20.65;51.56;99906.16;5038176;28;20210;-76
2023/10/19 11:11:39;;;;;;;0.90;0.90;;;;;;;20.78;51.58;99899.63;5071554;28;20697;-77
2023/10/19 11:14:12;;;;;;;0.68;0.68;;;;;;;20.90;51.50;99888.72;5073211;28;20207;-77
2023/10/19 11:16:40;;;;;;;1.88;1.55;;;;;;;20.88;50.78;99879.97;5073646;28;20264;-77
2023/10/19 11:19:07;;;;;;;0.82;0.82;;;;;;;20.67;49.99;99859.53;5073175;28;20778;-77
2023/10/19 11:21:34;;;;;;;0.80;0.80;;;;;;;20.89;49.73;99875.56;5073353;28;20226;-77
2023/10/19 11:24:01;;;;;;;0.82;0.82;;;;;;;21.08;49.82;99887.28;5073298;28;20191;-77
2023/10/19 11:26:29;;;;;;;1.92;1.83;;;;;;;21.14;49.24;99881.84;5073411;28;20207;-77
2023/10/19 11:29:03;;;;;;;0.70;0.70;;;;;;;21.24;48.40;99878.88;5073068;28;20198;-77
2023/10/19 11:31:37;;;;;;;0.80;0.80;;;;;;;21.26;47.65;99870.91;5073375;28;20283;-77
2023/10/19 11:34:04;;;;;;;1.08;1.02;;;;;;;21.32;47.70;99869.88;5072958;28;20210;-77
2023/10/19 11:36:31;;;;;;;1.67;1.48;;;;;;;21.23;48.57;99863.09;5072844;28;20195;-77
2023/10/19 11:38:58;;;;;;;0.93;0.90;;;;;;;20.89;49.15;99842.19;5072987;28;20198;-77
2023/10/19 11:41:25;;;;;;;0.80;0.80;;;;;;;20.47;48.09;99746.88;5072986;28;20207;-75
2023/10/19 11:43:52;;;;;;;1.08;0.98;;;;;;;21.30;48.14;99851.44;5072305;28;20202;-77
2023/10/19 11:46:22;;;;;;;1.08;0.85;;;;;;;21.36;47.45;99831.94;5072870;28;20202;-76
2023/10/19 11:48:49;;;;;;;0.77;0.77;;;;;;;21.33;47.69;99850.50;5072860;28;20199;-77
2023/10/19 11:51:16;;;;;;;1.15;1.05;;;;;;;21.08;47.66;99847.75;5072446;28;20227;-76
2023/10/19 11:53:44;;;;;;;0.73;0.73;;;;;;;21.18;47.71;99836.03;5072897;28;20264;-77